sensor_id;sensor_type;location;lat;lon;timestamp;pressure;altitude;pressure_sealevel;temperature;humidity
83697;BME280;73677;54.530;18.484;2024-02-23T00:01:04;98407.88;;;7.80;87.84
83697;BME280;73677;54.530;18.484;2024-02-23T00:03:50;98418.81;;;7.75;88.19
83697;BME280;73677;54.530;18.484;2024-02-23T00:06:19;98404.31;;;7.75;88.21
83697;BME280;73677;54.530;18.484;2024-02-23T00:08:49;98410.63;;;7.80;87.77
83697;BME280;73677;54.530;18.484;2024-02-23T00:11:17;98405.16;;;7.80;87.59
83697;BME280;73677;54.530;18.484;2024-02-23T00:13:46;98404.06;;;7.86;87.58
83697;BME280;73677;54.530;18.484;2024-02-23T00:16:14;98389.03;;;7.84;87.10
83697;BME280;73677;54.530;18.484;2024-02-23T00:18:43;98383.00;;;7.77;87.60
83697;BME280;73677;54.530;18.484;2024-02-23T00:21:12;98354.81;;;7.71;87.97
83697;BME280;73677;54.530;18.484;2024-02-23T00:23:40;98375.03;;;7.75;87.87
83697;BME280;73677;54.530;18.484;2024-02-23T00:26:10;98369.88;;;7.79;87.77
83697;BME280;73677;54.530;18.484;2024-02-23T00:28:39;98364.94;;;7.81;87.62
83697;BME280;73677;54.530;18.484;2024-02-23T00:31:08;98347.44;;;7.72;87.20
83697;BME280;73677;54.530;18.484;2024-02-23T00:33:36;98349.59;;;7.75;87.51
83697;BME280;73677;54.530;18.484;2024-02-23T00:36:09;98351.56;;;7.74;87.11
83697;BME280;73677;54.530;18.484;2024-02-23T00:38:37;98349.66;;;7.80;87.48
83697;BME280;73677;54.530;18.484;2024-02-23T00:41:06;98340.34;;;7.81;87.14
83697;BME280;73677;54.530;18.484;2024-02-23T00:43:39;98347.72;;;7.80;87.19
83697;BME280;73677;54.530;18.484;2024-02-23T00:46:07;98341.16;;;7.81;86.90
83697;BME280;73677;54.530;18.484;2024-02-23T00:48:36;98357.31;;;7.88;86.63
83697;BME280;73677;54.530;18.484;2024-02-23T00:51:04;98358.97;;;7.84;87.13
83697;BME280;73677;54.530;18.484;2024-02-23T00:53:34;98354.03;;;7.86;86.74
83697;BME280;73677;54.530;18.484;2024-02-23T00:56:03;98349.69;;;7.90;86.65
83697;BME280;73677;54.530;18.484;2024-02-23T00:58:32;98336.00;;;7.85;86.12
83697;BME280;73677;54.530;18.484;2024-02-23T01:01:01;98334.34;;;7.94;86.16
83697;BME280;73677;54.530;18.484;2024-02-23T01:03:30;98346.13;;;7.99;86.18
83697;BME280;73677;54.530;18.484;2024-02-23T01:05:59;98337.09;;;7.94;85.97
83697;BME280;73677;54.530;18.484;2024-02-23T01:08:27;98317.38;;;7.97;86.41
83697;BME280;73677;54.530;18.484;2024-02-23T01:10:56;98305.34;;;7.88;86.10
83697;BME280;73677;54.530;18.484;2024-02-23T01:13:24;98308.63;;;7.85;85.74
83697;BME280;73677;54.530;18.484;2024-02-23T01:15:53;98316.56;;;7.96;86.06
83697;BME280;73677;54.530;18.484;2024-02-23T01:18:23;98291.41;;;7.99;86.10
83697;BME280;73677;54.530;18.484;2024-02-23T01:20:52;98304.00;;;7.95;85.93
83697;BME280;73677;54.530;18.484;2024-02-23T01:23:20;98306.19;;;7.98;85.63
83697;BME280;73677;54.530;18.484;2024-02-23T01:25:49;98310.56;;;7.99;85.97
83697;BME280;73677;54.530;18.484;2024-02-23T01:28:17;98299.88;;;7.93;86.42
83697;BME280;73677;54.530;18.484;2024-02-23T01:30:46;98259.66;;;7.68;86.18
83697;BME280;73677;54.530;18.484;2024-02-23T01:33:14;98306.75;;;8.00;86.47
83697;BME280;73677;54.530;18.484;2024-02-23T01:35:44;98312.47;;;7.99;86.36
83697;BME280;73677;54.530;18.484;2024-02-23T01:38:13;98305.34;;;7.93;86.87
83697;BME280;73677;54.530;18.484;2024-02-23T01:40:46;98298.78;;;7.89;86.94
83697;BME280;73677;54.530;18.484;2024-02-23T01:43:14;98295.22;;;7.88;87.41
83697;BME280;73677;54.530;18.484;2024-02-23T01:45:42;98297.13;;;7.88;87.42
83697;BME280;73677;54.530;18.484;2024-02-23T01:48:11;98293.03;;;7.85;87.46
83697;BME280;73677;54.530;18.484;2024-02-23T01:50:40;98291.94;;;7.86;87.22
83697;BME280;73677;54.530;18.484;2024-02-23T01:53:10;98285.09;;;7.79;87.66
83697;BME280;73677;54.530;18.484;2024-02-23T01:55:40;98288.94;;;7.83;87.99
83697;BME280;73677;54.530;18.484;2024-02-23T01:58:09;98277.16;;;7.77;88.58
83697;BME280;73677;54.530;18.484;2024-02-23T02:00:38;98287.25;;;7.72;89.43
83697;BME280;73677;54.530;18.484;2024-02-23T02:03:07;98282.34;;;7.69;88.99
83697;BME280;73677;54.530;18.484;2024-02-23T02:05:39;98292.16;;;7.70;89.45
83697;BME280;73677;54.530;18.484;2024-02-23T02:08:09;98291.38;;;7.74;89.46
83697;BME280;73677;54.530;18.484;2024-02-23T02:10:38;98289.47;;;7.80;89.34
83697;BME280;73677;54.530;18.484;2024-02-23T02:13:07;98286.19;;;7.78;88.87
83697;BME280;73677;54.530;18.484;2024-02-23T02:15:36;98298.22;;;7.82;89.13
83697;BME280;73677;54.530;18.484;2024-02-23T02:18:05;98288.38;;;7.86;89.14
83697;BME280;73677;54.530;18.484;2024-02-23T02:20:36;98298.78;;;7.89;89.06
83697;BME280;73677;54.530;18.484;2024-02-23T02:23:05;98296.59;;;7.96;88.58
83697;BME280;73677;54.530;18.484;2024-02-23T02:25:36;98283.47;;;7.83;89.13
83697;BME280;73677;54.530;18.484;2024-02-23T02:28:06;98294.41;;;7.93;89.33
83697;BME280;73677;54.530;18.484;2024-02-23T02:30:35;98280.16;;;7.81;90.55
83697;BME280;73677;54.530;18.484;2024-02-23T02:33:04;98295.22;;;7.88;91.00
83697;BME280;73677;54.530;18.484;2024-02-23T02:35:32;98291.41;;;7.84;91.28
83697;BME280;73677;54.530;18.484;2024-02-23T02:38:01;98294.41;;;7.83;91.24
83697;BME280;73677;54.530;18.484;2024-02-23T02:40:30;98290.56;;;7.74;91.72
83697;BME280;73677;54.530;18.484;2024-02-23T02:43:00;98294.66;;;7.76;92.29
83697;BME280;73677;54.530;18.484;2024-02-23T02:45:29;98301.50;;;7.69;92.80
83697;BME280;73677;54.530;18.484;2024-02-23T02:47:59;98309.72;;;7.74;92.85
83697;BME280;73677;54.530;18.484;2024-02-23T02:50:28;98303.13;;;7.75;92.79
83697;BME280;73677;54.530;18.484;2024-02-23T02:52:56;98302.03;;;7.76;92.85
83697;BME280;73677;54.530;18.484;2024-02-23T02:55:25;98307.50;;;7.76;92.32
83697;BME280;73677;54.530;18.484;2024-02-23T02:57:53;98297.94;;;7.73;92.97
83697;BME280;73677;54.530;18.484;2024-02-23T03:00:23;98287.25;;;7.72;92.97
83697;BME280;73677;54.530;18.484;2024-02-23T03:02:53;98301.50;;;7.74;93.21
83697;BME280;73677;54.530;18.484;2024-02-23T03:05:21;98287.81;;;7.69;93.49
83697;BME280;73677;54.530;18.484;2024-02-23T03:07:50;98285.38;;;7.77;93.31
83697;BME280;73677;54.530;18.484;2024-02-23T03:10:19;98287.84;;;7.79;92.65
83697;BME280;73677;54.530;18.484;2024-02-23T03:12:47;98289.47;;;7.80;92.94
83697;BME280;73677;54.530;18.484;2024-02-23T03:15:15;98265.94;;;7.74;93.36
83697;BME280;73677;54.530;18.484;2024-02-23T03:17:46;98280.72;;;7.83;93.36
83697;BME280;73677;54.530;18.484;2024-02-23T03:20:15;98282.06;;;7.80;93.37
83697;BME280;73677;54.530;18.484;2024-02-23T03:22:44;98300.44;;;7.80;93.45
83697;BME280;73677;54.530;18.484;2024-02-23T03:25:12;98297.41;;;7.81;93.25
83697;BME280;73677;54.530;18.484;2024-02-23T03:27:41;98299.06;;;7.87;92.44
83697;BME280;73677;54.530;18.484;2024-02-23T03:30:10;98302.63;;;7.88;92.76
83697;BME280;73677;54.530;18.484;2024-02-23T03:32:38;98301.78;;;7.87;92.70
83697;BME280;73677;54.530;18.484;2024-02-23T03:35:08;98294.97;;;7.90;93.22
83697;BME280;73677;54.530;18.484;2024-02-23T03:37:38;98275.50;;;7.76;92.43
83697;BME280;73677;54.530;18.484;2024-02-23T03:40:07;98288.94;;;7.83;93.18
83697;BME280;73677;54.530;18.484;2024-02-23T03:42:37;98306.75;;;7.95;92.36
83697;BME280;73677;54.530;18.484;2024-02-23T03:45:05;98286.19;;;7.83;92.16
83697;BME280;73677;54.530;18.484;2024-02-23T03:47:34;98310.28;;;8.01;91.74
83697;BME280;73677;54.530;18.484;2024-02-23T03:50:03;98303.72;;;7.97;92.36
83697;BME280;73677;54.530;18.484;2024-02-23T03:52:33;98321.22;;;8.01;92.53
83697;BME280;73677;54.530;18.484;2024-02-23T03:55:01;98305.09;;;7.94;92.45
83697;BME280;73677;54.530;18.484;2024-02-23T03:57:31;98310.00;;;7.97;92.72
83697;BME280;73677;54.530;18.484;2024-02-23T04:00:00;98326.16;;;8.04;92.98
83697;BME280;73677;54.530;18.484;2024-02-23T04:02:29;98329.72;;;7.99;93.08
83697;BME280;73677;54.530;18.484;2024-02-23T04:04:58;98333.53;;;7.98;93.36
83697;BME280;73677;54.530;18.484;2024-02-23T04:07:27;98326.97;;;7.99;93.07
83697;BME280;73677;54.530;18.484;2024-02-23T04:09:56;98336.56;;;8.07;93.29
83697;BME280;73677;54.530;18.484;2024-02-23T04:12:25;98334.63;;;8.07;93.53
83697;BME280;73677;54.530;18.484;2024-02-23T04:14:53;98330.25;;;8.01;93.40
83697;BME280;73677;54.530;18.484;2024-02-23T04:17:22;98314.91;;;7.85;93.50
83697;BME280;73677;54.530;18.484;2024-02-23T04:19:50;98351.31;;;8.06;93.24
83697;BME280;73677;54.530;18.484;2024-02-23T04:22:19;98343.66;;;8.08;93.03
83697;BME280;73677;54.530;18.484;2024-02-23T04:24:47;98356.28;;;8.14;93.19
83697;BME280;73677;54.530;18.484;2024-02-23T04:27:17;98354.63;;;8.18;93.21
83697;BME280;73677;54.530;18.484;2024-02-23T04:29:46;98352.97;;;8.22;92.86
83697;BME280;73677;54.530;18.484;2024-02-23T04:32:14;98353.28;;;8.21;93.08
83697;BME280;73677;54.530;18.484;2024-02-23T04:34:43;98358.19;;;8.24;93.09
83697;BME280;73677;54.530;18.484;2024-02-23T04:37:11;98365.06;;;8.21;93.55
83697;BME280;73677;54.530;18.484;2024-02-23T04:39:40;98344.50;;;8.14;93.65
83697;BME280;73677;54.530;18.484;2024-02-23T04:42:09;98367.22;;;8.24;93.63
83697;BME280;73677;54.530;18.484;2024-02-23T04:44:41;98360.09;;;8.28;93.24
83697;BME280;73677;54.530;18.484;2024-02-23T04:47:09;98372.19;;;8.32;93.13
83697;BME280;73677;54.530;18.484;2024-02-23T04:49:38;98364.28;;;8.36;93.08
83697;BME280;73677;54.530;18.484;2024-02-23T04:52:07;98357.16;;;8.40;92.78
83697;BME280;73677;54.530;18.484;2024-02-23T04:54:35;98373.00;;;8.43;92.40
83697;BME280;73677;54.530;18.484;2024-02-23T04:57:04;98377.13;;;8.50;92.32
83697;BME280;73677;54.530;18.484;2024-02-23T04:59:32;98386.44;;;8.55;92.17
83697;BME280;73677;54.530;18.484;2024-02-23T05:02:02;98392.47;;;8.57;92.12
83697;BME280;73677;54.530;18.484;2024-02-23T05:04:31;98377.69;;;8.58;91.70
83697;BME280;73677;54.530;18.484;2024-02-23T05:07:00;98388.66;;;8.63;91.80
83697;BME280;73677;54.530;18.484;2024-02-23T05:09:29;98372.75;;;8.65;91.40
83697;BME280;73677;54.530;18.484;2024-02-23T05:11:59;98385.63;;;8.69;91.35
83697;BME280;73677;54.530;18.484;2024-02-23T05:14:27;98394.66;;;8.70;91.24
83697;BME280;73677;54.530;18.484;2024-02-23T05:16:56;98398.50;;;8.74;91.61
83697;BME280;73677;54.530;18.484;2024-02-23T05:19:26;98393.56;;;8.76;91.15
83697;BME280;73677;54.530;18.484;2024-02-23T05:21:55;98396.84;;;8.83;90.73
83697;BME280;73677;54.530;18.484;2024-02-23T05:24:23;98413.56;;;8.86;90.63
83697;BME280;73677;54.530;18.484;2024-02-23T05:26:52;98404.25;;;8.92;90.30
83697;BME280;73677;54.530;18.484;2024-02-23T05:29:21;98403.97;;;8.94;90.43
83697;BME280;73677;54.530;18.484;2024-02-23T05:31:51;98411.63;;;8.97;90.04
83697;BME280;73677;54.530;18.484;2024-02-23T05:34:20;98421.75;;;9.02;90.54
83697;BME280;73677;54.530;18.484;2024-02-23T05:36:50;98415.75;;;9.10;89.64
83697;BME280;73677;54.530;18.484;2024-02-23T05:39:19;98425.88;;;9.09;89.41
83697;BME280;73677;54.530;18.484;2024-02-23T05:41:47;98419.84;;;9.07;89.19
83697;BME280;73677;54.530;18.484;2024-02-23T05:44:15;98427.53;;;9.10;89.28
83697;BME280;73677;54.530;18.484;2024-02-23T05:46:44;98433.28;;;9.14;89.54
83697;BME280;73677;54.530;18.484;2024-02-23T05:49:13;98444.50;;;9.17;89.27
83697;BME280;73677;54.530;18.484;2024-02-23T05:51:41;98442.31;;;9.14;89.16
83697;BME280;73677;54.530;18.484;2024-02-23T05:54:12;98440.91;;;9.17;89.08
83697;BME280;73677;54.530;18.484;2024-02-23T05:56:40;98431.91;;;8.96;89.35
83697;BME280;73677;54.530;18.484;2024-02-23T05:59:08;98449.97;;;9.07;89.26
83697;BME280;73677;54.530;18.484;2024-02-23T06:01:37;98447.25;;;9.07;89.04
83697;BME280;73677;54.530;18.484;2024-02-23T06:04:06;98459.28;;;9.16;89.04
83697;BME280;73677;54.530;18.484;2024-02-23T06:06:34;98460.09;;;9.17;88.93
83697;BME280;73677;54.530;18.484;2024-02-23T06:09:03;98436.56;;;8.96;88.80
83697;BME280;73677;54.530;18.484;2024-02-23T06:11:34;98469.16;;;9.17;88.93
83697;BME280;73677;54.530;18.484;2024-02-23T06:14:02;98469.44;;;9.21;88.46
83697;BME280;73677;54.530;18.484;2024-02-23T06:16:31;98476.84;;;9.20;88.51
83697;BME280;73677;54.530;18.484;2024-02-23T06:18:59;98474.38;;;9.24;88.60
83697;BME280;73677;54.530;18.484;2024-02-23T06:21:30;98480.69;;;9.24;88.27
83697;BME280;73677;54.530;18.484;2024-02-23T06:23:59;98490.00;;;9.28;88.36
83697;BME280;73677;54.530;18.484;2024-02-23T06:26:28;98468.06;;;9.13;87.94
83697;BME280;73677;54.530;18.484;2024-02-23T06:28:58;98506.16;;;9.30;88.19
83697;BME280;73677;54.530;18.484;2024-02-23T06:31:27;98511.66;;;9.30;88.05
83697;BME280;73677;54.530;18.484;2024-02-23T06:33:55;98522.88;;;9.33;87.87
83697;BME280;73677;54.530;18.484;2024-02-23T06:36:24;98525.09;;;9.37;88.02
83697;BME280;73677;54.530;18.484;2024-02-23T06:38:53;98531.66;;;9.35;87.79
83697;BME280;73677;54.530;18.484;2024-02-23T06:41:22;98542.63;;;9.41;87.39
83697;BME280;73677;54.530;18.484;2024-02-23T06:43:50;98542.63;;;9.46;87.38
83697;BME280;73677;54.530;18.484;2024-02-23T06:46:22;98542.06;;;9.49;86.95
83697;BME280;73677;54.530;18.484;2024-02-23T06:48:50;98549.19;;;9.55;87.30
83697;BME280;73677;54.530;18.484;2024-02-23T06:51:19;98552.19;;;9.58;86.63
83697;BME280;73677;54.530;18.484;2024-02-23T06:53:47;98573.06;;;9.59;87.06
83697;BME280;73677;54.530;18.484;2024-02-23T06:56:16;98576.88;;;9.58;86.56
83697;BME280;73677;54.530;18.484;2024-02-23T06:58:44;98587.06;;;9.68;86.43
83697;BME280;73677;54.530;18.484;2024-02-23T07:01:14;98538.25;;;9.40;86.46
83697;BME280;73677;54.530;18.484;2024-02-23T07:03:43;98599.94;;;9.72;86.29
83697;BME280;73677;54.530;18.484;2024-02-23T07:06:12;98613.34;;;9.89;85.90
83697;BME280;73677;54.530;18.484;2024-02-23T07:08:42;98622.97;;;9.92;85.56
83697;BME280;73677;54.530;18.484;2024-02-23T07:11:11;98594.16;;;9.79;84.70
83697;BME280;73677;54.530;18.484;2024-02-23T07:13:42;98623.50;;;9.94;84.85
83697;BME280;73677;54.530;18.484;2024-02-23T07:16:11;98628.44;;;10.02;84.28
83697;BME280;73677;54.530;18.484;2024-02-23T07:18:40;98619.94;;;10.03;83.95
83697;BME280;73677;54.530;18.484;2024-02-23T07:21:10;98626.75;;;10.11;83.63
83697;BME280;73677;54.530;18.484;2024-02-23T07:23:39;98635.00;;;10.11;83.29
83697;BME280;73677;54.530;18.484;2024-02-23T07:26:07;98645.13;;;10.15;83.46
83697;BME280;73677;54.530;18.484;2024-02-23T07:28:36;98645.16;;;10.10;83.66
83697;BME280;73677;54.530;18.484;2024-02-23T07:31:04;98646.53;;;10.13;83.05
83697;BME280;73677;54.530;18.484;2024-02-23T07:33:33;98653.13;;;10.17;82.97
83697;BME280;73677;54.530;18.484;2024-02-23T07:36:02;98657.25;;;10.25;82.52
83697;BME280;73677;54.530;18.484;2024-02-23T07:38:32;98667.41;;;10.29;82.33
83697;BME280;73677;54.530;18.484;2024-02-23T07:41:00;98677.84;;;10.22;82.15
83697;BME280;73677;54.530;18.484;2024-02-23T07:43:29;98671.53;;;10.22;82.18
83697;BME280;73677;54.530;18.484;2024-02-23T07:45:57;98666.03;;;10.16;81.44
83697;BME280;73677;54.530;18.484;2024-02-23T07:48:26;98677.31;;;10.25;80.80
83697;BME280;73677;54.530;18.484;2024-02-23T07:50:54;98693.75;;;10.40;80.88
83697;BME280;73677;54.530;18.484;2024-02-23T07:53:23;98701.16;;;10.40;80.05
83697;BME280;73677;54.530;18.484;2024-02-23T07:55:53;98701.44;;;10.43;80.32
83697;BME280;73677;54.530;18.484;2024-02-23T07:58:21;98675.66;;;10.24;79.72
83697;BME280;73677;54.530;18.484;2024-02-23T08:00:50;98713.50;;;10.47;79.61
83697;BME280;73677;54.530;18.484;2024-02-23T08:03:18;98713.22;;;10.49;79.00
83697;BME280;73677;54.530;18.484;2024-02-23T08:05:47;98720.09;;;10.56;78.42
83697;BME280;73677;54.530;18.484;2024-02-23T08:08:15;98731.59;;;10.58;78.10
83697;BME280;73677;54.530;18.484;2024-02-23T08:10:44;98728.03;;;10.63;77.85
83697;BME280;73677;54.530;18.484;2024-02-23T08:13:14;98747.00;;;10.54;77.76
83697;BME280;73677;54.530;18.484;2024-02-23T08:15:45;98734.09;;;10.50;77.18
83697;BME280;73677;54.530;18.484;2024-02-23T08:18:13;98739.31;;;10.67;77.22
83697;BME280;73677;54.530;18.484;2024-02-23T08:20:42;98743.16;;;10.55;76.84
83697;BME280;73677;54.530;18.484;2024-02-23T08:23:11;98738.22;;;10.52;76.97
83697;BME280;73677;54.530;18.484;2024-02-23T08:25:40;98710.50;;;10.44;76.79
83697;BME280;73677;54.530;18.484;2024-02-23T08:28:08;98755.22;;;10.65;76.24
83697;BME280;73677;54.530;18.484;2024-02-23T08:30:39;98769.53;;;10.67;76.73
83697;BME280;73677;54.530;18.484;2024-02-23T08:33:07;98775.84;;;10.72;75.09
83697;BME280;73677;54.530;18.484;2024-02-23T08:35:37;98782.97;;;10.73;75.39
83697;BME280;73677;54.530;18.484;2024-02-23T08:38:05;98768.69;;;10.71;75.31
83697;BME280;73677;54.530;18.484;2024-02-23T08:40:34;98768.91;;;10.85;74.95
83697;BME280;73677;54.530;18.484;2024-02-23T08:43:03;98787.31;;;10.89;74.31
83697;BME280;73677;54.530;18.484;2024-02-23T08:45:32;98786.22;;;10.95;74.00
83697;BME280;73677;54.530;18.484;2024-02-23T08:48:02;98785.16;;;10.86;74.17
83697;BME280;73677;54.530;18.484;2024-02-23T08:50:31;98791.50;;;10.77;72.64
83697;BME280;73677;54.530;18.484;2024-02-23T08:53:00;98804.13;;;10.88;72.67
83697;BME280;73677;54.530;18.484;2024-02-23T08:55:28;98812.88;;;10.90;72.55
83697;BME280;73677;54.530;18.484;2024-02-23T08:57:57;98824.97;;;10.94;72.78
83697;BME280;73677;54.530;18.484;2024-02-23T09:00:26;98829.38;;;10.90;72.33
83697;BME280;73677;54.530;18.484;2024-02-23T09:02:54;98843.94;;;11.00;72.48
83697;BME280;73677;54.530;18.484;2024-02-23T09:05:24;98810.75;;;10.72;71.51
83697;BME280;73677;54.530;18.484;2024-02-23T09:07:53;98850.53;;;11.04;70.24
83697;BME280;73677;54.530;18.484;2024-02-23T09:10:21;98868.69;;;10.95;69.45
83697;BME280;73677;54.530;18.484;2024-02-23T09:12:50;98870.06;;;10.98;69.46
83697;BME280;73677;54.530;18.484;2024-02-23T09:15:20;98873.91;;;10.97;68.37
83697;BME280;73677;54.530;18.484;2024-02-23T09:17:48;98873.66;;;10.88;68.25
83697;BME280;73677;54.530;18.484;2024-02-23T09:20:18;98875.03;;;10.91;67.45
83697;BME280;73677;54.530;18.484;2024-02-23T09:22:48;98870.09;;;10.93;67.41
83697;BME280;73677;54.530;18.484;2024-02-23T09:25:18;98876.94;;;10.90;65.73
83697;BME280;73677;54.530;18.484;2024-02-23T09:27:46;98881.06;;;10.98;64.70
83697;BME280;73677;54.530;18.484;2024-02-23T09:30:15;98900.84;;;10.95;64.95
83697;BME280;73677;54.530;18.484;2024-02-23T09:32:44;98897.00;;;10.96;63.13
83697;BME280;73677;54.530;18.484;2024-02-23T09:35:13;98903.06;;;11.08;62.93
83697;BME280;73677;54.530;18.484;2024-02-23T09:37:42;98896.44;;;11.19;61.54
83697;BME280;73677;54.530;18.484;2024-02-23T09:40:12;98901.94;;;11.24;60.46
83697;BME280;73677;54.530;18.484;2024-02-23T09:42:42;98895.84;;;11.37;60.40
83697;BME280;73677;54.530;18.484;2024-02-23T09:45:11;98900.50;;;11.42;59.34
83697;BME280;73677;54.530;18.484;2024-02-23T09:47:40;98904.88;;;11.48;59.04
83697;BME280;73677;54.530;18.484;2024-02-23T09:50:12;98901.59;;;11.36;59.14
83697;BME280;73677;54.530;18.484;2024-02-23T09:52:41;98900.03;;;11.15;58.02
83697;BME280;73677;54.530;18.484;2024-02-23T09:55:11;98908.78;;;11.27;57.10
83697;BME280;73677;54.530;18.484;2024-02-23T09:57:40;98907.16;;;11.16;56.78
83697;BME280;73677;54.530;18.484;2024-02-23T10:00:11;98891.19;;;11.23;57.53
83697;BME280;73677;54.530;18.484;2024-02-23T10:02:40;98920.25;;;11.64;56.89
83697;BME280;73677;54.530;18.484;2024-02-23T10:05:10;98919.69;;;11.77;55.85
83697;BME280;73677;54.530;18.484;2024-02-23T10:07:40;98936.25;;;11.42;55.09
83697;BME280;73677;54.530;18.484;2024-02-23T10:10:09;98950.34;;;11.35;55.20
83697;BME280;73677;54.530;18.484;2024-02-23T10:12:39;98962.66;;;11.48;55.58
83697;BME280;73677;54.530;18.484;2024-02-23T10:15:08;98967.63;;;11.56;56.49
83697;BME280;73677;54.530;18.484;2024-02-23T10:17:37;98965.38;;;11.63;56.28
83697;BME280;73677;54.530;18.484;2024-02-23T10:20:07;98970.38;;;11.41;54.88
83697;BME280;73677;54.530;18.484;2024-02-23T10:22:37;98965.44;;;11.38;55.06
83697;BME280;73677;54.530;18.484;2024-02-23T10:25:07;99003.09;;;11.53;55.18
83697;BME280;73677;54.530;18.484;2024-02-23T10:27:35;98992.41;;;11.51;54.34
83697;BME280;73677;54.530;18.484;2024-02-23T10:30:06;99004.50;;;11.50;53.98
83697;BME280;73677;54.530;18.484;2024-02-23T10:32:38;98999.28;;;11.43;53.64
83697;BME280;73677;54.530;18.484;2024-02-23T10:35:10;99011.66;;;11.16;53.85
83697;BME280;73677;54.530;18.484;2024-02-23T10:37:40;99015.53;;;11.15;53.20
83697;BME280;73677;54.530;18.484;2024-02-23T10:40:11;99035.31;;;11.37;54.05
83697;BME280;73677;54.530;18.484;2024-02-23T10:42:43;98999.31;;;11.23;53.00
83697;BME280;73677;54.530;18.484;2024-02-23T10:45:20;99011.94;;;11.50;52.14
83697;BME280;73677;54.530;18.484;2024-02-23T10:47:50;99027.28;;;11.96;50.30
83697;BME280;73677;54.530;18.484;2024-02-23T10:50:20;99018.78;;;11.82;50.70
83697;BME280;73677;54.530;18.484;2024-02-23T10:52:50;99031.97;;;11.91;50.45
83697;BME280;73677;54.530;18.484;2024-02-23T10:55:21;99039.09;;;12.07;50.25
83697;BME280;73677;54.530;18.484;2024-02-23T10:57:51;99036.63;;;12.00;48.59
83697;BME280;73677;54.530;18.484;2024-02-23T11:00:23;99060.59;;;12.00;49.63
83697;BME280;73677;54.530;18.484;2024-02-23T11:02:53;99033.06;;;11.95;48.25
83697;BME280;73677;54.530;18.484;2024-02-23T11:05:23;99060.34;;;11.66;49.22
83697;BME280;73677;54.530;18.484;2024-02-23T11:07:55;99043.03;;;11.35;49.72
83697;BME280;73677;54.530;18.484;2024-02-23T11:10:24;99078.25;;;11.43;50.31
83697;BME280;73677;54.530;18.484;2024-02-23T11:12:58;99083.47;;;11.29;50.60
83697;BME280;73677;54.530;18.484;2024-02-23T11:15:30;99085.41;;;11.44;51.79
83697;BME280;73677;54.530;18.484;2024-02-23T11:18:00;99098.06;;;11.55;50.51
83697;BME280;73677;54.530;18.484;2024-02-23T11:20:34;99086.75;;;11.16;51.43
83697;BME280;73677;54.530;18.484;2024-02-23T11:23:13;99112.94;;;11.44;52.18
83697;BME280;73677;54.530;18.484;2024-02-23T11:25:42;99117.59;;;11.33;51.80
83697;BME280;73677;54.530;18.484;2024-02-23T11:28:21;99123.91;;;11.14;51.95
83697;BME280;73677;54.530;18.484;2024-02-23T11:30:51;99066.34;;;10.82;52.48
83697;BME280;73677;54.530;18.484;2024-02-23T11:33:26;99131.59;;;11.27;52.23
83697;BME280;73677;54.530;18.484;2024-02-23T11:36:05;99141.53;;;11.28;52.34
83697;BME280;73677;54.530;18.484;2024-02-23T11:38:34;99143.19;;;11.29;51.10
83697;BME280;73677;54.530;18.484;2024-02-23T11:41:03;99139.34;;;11.40;51.76
83697;BME280;73677;54.530;18.484;2024-02-23T11:43:33;99156.38;;;11.47;52.97
83697;BME280;73677;54.530;18.484;2024-02-23T11:46:04;99145.38;;;11.62;52.16
83697;BME280;73677;54.530;18.484;2024-02-23T11:48:32;99142.94;;;11.51;51.54
83697;BME280;73677;54.530;18.484;2024-02-23T11:51:01;99144.84;;;11.45;51.93
83697;BME280;73677;54.530;18.484;2024-02-23T11:53:30;99133.84;;;11.40;51.17
83697;BME280;73677;54.530;18.484;2024-02-23T11:55:59;99137.94;;;11.37;51.60
83697;BME280;73677;54.530;18.484;2024-02-23T11:58:27;99139.94;;;11.82;51.15
83697;BME280;73677;54.530;18.484;2024-02-23T12:00:56;99111.56;;;11.82;50.28
83697;BME280;73677;54.530;18.484;2024-02-23T12:03:27;99154.44;;;12.44;51.01
83697;BME280;73677;54.530;18.484;2024-02-23T12:05:56;99139.59;;;12.29;49.78
83697;BME280;73677;54.530;18.484;2024-02-23T12:08:25;99162.41;;;12.55;49.97
83697;BME280;73677;54.530;18.484;2024-02-23T12:10:54;99164.41;;;12.04;49.64
83697;BME280;73677;54.530;18.484;2024-02-23T12:13:23;99185.56;;;11.43;52.19
83697;BME280;73677;54.530;18.484;2024-02-23T12:15:53;99176.00;;;11.76;50.86
83697;BME280;73677;54.530;18.484;2024-02-23T12:18:21;99172.97;;;13.02;48.75
83697;BME280;73677;54.530;18.484;2024-02-23T12:20:52;99170.16;;;13.95;46.64
83697;BME280;73677;54.530;18.484;2024-02-23T12:23:21;99155.56;;;13.51;45.64
83697;BME280;73677;54.530;18.484;2024-02-23T12:25:54;99172.53;;;13.39;47.44
83697;BME280;73677;54.530;18.484;2024-02-23T12:28:23;99154.66;;;12.57;47.23
83697;BME280;73677;54.530;18.484;2024-02-23T12:30:59;99140.44;;;12.15;47.55
83697;BME280;73677;54.530;18.484;2024-02-23T12:33:28;99190.25;;;11.68;49.09
83697;BME280;73677;54.530;18.484;2024-02-23T12:36:00;99202.88;;;11.33;50.28
83697;BME280;73677;54.530;18.484;2024-02-23T12:38:28;99196.06;;;11.56;50.05
83697;BME280;73677;54.530;18.484;2024-02-23T12:40:58;99210.69;;;11.87;49.96
83697;BME280;73677;54.530;18.484;2024-02-23T12:43:27;99196.09;;;12.02;49.54
83697;BME280;73677;54.530;18.484;2024-02-23T12:45:57;99204.34;;;12.12;48.91
83697;BME280;73677;54.530;18.484;2024-02-23T12:48:25;99204.63;;;11.95;48.35
83697;BME280;73677;54.530;18.484;2024-02-23T12:50:54;99198.84;;;12.22;47.23
83697;BME280;73677;54.530;18.484;2024-02-23T12:53:35;99184.91;;;12.78;45.97
83697;BME280;73677;54.530;18.484;2024-02-23T12:56:06;99196.03;;;12.42;47.54
83697;BME280;73677;54.530;18.484;2024-02-23T12:58:36;99161.91;;;11.67;47.98
83697;BME280;73677;54.530;18.484;2024-02-23T13:01:06;99205.47;;;11.80;49.12
83697;BME280;73677;54.530;18.484;2024-02-23T13:03:36;99162.50;;;11.95;48.11
83697;BME280;73677;54.530;18.484;2024-02-23T13:06:05;99173.22;;;12.21;47.55